Time;durP1;ratioP1;P1;durP2;ratioP2;P2;SDS_P1;SDS_P2;PMS_P1;PMS_P2;Temp;Humidity;BMP_temperature;BMP_pressure;BME280_temperature;BME280_humidity;BME280_pressure;Samples;Min_cycle;Max_cycle;Signal;HPM_P1;HPM_P2
2021/06/19 00:02:05;;;;;;;;;;;20.90;99.90;;;-145.59;100.00;63944.34;5092885;28;19916;-63
2021/06/19 00:04:31;;;;;;;;;;;20.90;99.90;;;-145.59;100.00;63944.34;5075544;28;19972;-65
2021/06/19 00:06:58;;;;;;;;;;;20.80;99.90;;;-145.59;100.00;63944.34;5092368;28;19915;-64
2021/06/19 00:09:24;;;;;;;;;;;20.80;99.90;;;-145.59;100.00;63944.34;5092453;28;19916;-63
2021/06/19 00:11:49;;;;;;;;;;;20.80;99.90;;;-145.59;100.00;63944.34;5075617;28;20388;-67
2021/06/19 00:14:15;;;;;;;;;;;20.80;99.90;;;-145.59;100.00;63944.34;5093583;28;20018;-63
2021/06/19 00:16:41;;;;;;;;;;;20.80;99.90;;;-145.59;100.00;63944.34;5075370;28;19939;-69
2021/06/19 00:19:07;;;;;;;;;;;20.80;99.90;;;-145.59;100.00;63944.34;5092593;28;19916;-69
2021/06/19 00:21:32;;;;;;;;;;;20.90;99.90;;;-145.59;100.00;63944.34;5109543;28;19916;-69
2021/06/19 00:23:58;;;;;;;;;;;20.90;99.90;;;-145.59;100.00;63944.34;5092263;28;19939;-70
2021/06/19 00:26:24;;;;;;;;;;;20.90;99.90;;;-145.59;100.00;63944.34;5093946;28;19942;-70
2021/06/19 00:28:50;;;;;;;;;;;20.90;99.90;;;-145.59;100.00;63944.34;5093695;28;20271;-70
2021/06/19 00:31:16;;;;;;;;;;;20.90;99.90;;;-145.59;100.00;63944.34;5092935;28;19922;-71
2021/06/19 00:33:41;;;;;;;;;;;20.90;99.90;;;-145.59;100.00;63944.34;5093525;28;19945;-70
2021/06/19 00:36:07;;;;;;;;;;;20.80;99.90;;;-145.59;100.00;63944.34;5092058;28;19916;-70
2021/06/19 00:38:33;;;;;;;;;;;20.80;99.90;;;-145.59;100.00;63944.34;5078861;28;19916;-71
2021/06/19 00:40:59;;;;;;;;;;;20.90;99.90;;;-145.59;100.00;63944.34;5096275;28;19921;-70
2021/06/19 00:43:24;;;;;;;;;;;20.80;99.90;;;-145.59;100.00;63944.34;5096850;28;19968;-68
2021/06/19 00:45:50;;;;;;;;;;;20.80;99.90;;;-145.59;100.00;63944.34;5097575;28;19916;-68
2021/06/19 00:48:16;;;;;;;;;;;20.70;99.90;;;-145.59;100.00;63944.34;5097504;28;20289;-68
2021/06/19 00:50:42;;;;;;;;;;;20.70;99.90;;;-145.59;100.00;63944.34;5096373;28;19916;-70
2021/06/19 00:53:08;;;;;;;;;;;20.70;99.90;;;-145.59;100.00;63944.34;5095810;28;20428;-70
2021/06/19 00:55:34;;;;;;;;;;;20.70;99.90;;;-145.59;100.00;63944.34;5096193;28;19912;-68
2021/06/19 00:58:02;;;;;;;;;;;20.60;99.90;;;-145.59;100.00;63944.34;5062403;28;19945;-69
2021/06/19 01:00:28;;;;;;;;;;;20.60;99.90;;;-145.59;100.00;63944.34;5095860;28;19968;-70
2021/06/19 01:02:58;;;;;;;;;;;20.60;99.90;;;-145.59;100.00;63944.34;5095831;28;19927;-71
2021/06/19 01:05:26;;;;;;;;;;;20.50;99.90;;;-145.59;100.00;63944.34;5063312;28;20472;-71
2021/06/19 01:07:52;;;;;;;;;;;20.50;99.90;;;-145.59;100.00;63944.34;5082222;28;20281;-71
2021/06/19 01:10:18;;;;;;;;;;;20.50;99.90;;;-145.59;100.00;63944.34;5117385;28;19998;-69
2021/06/19 01:12:45;;;;;;;;;;;20.40;99.90;;;-145.59;100.00;63944.34;5099068;28;20469;-70
2021/06/19 01:15:12;;;;;;;;;;;20.40;99.90;;;-145.59;100.00;63944.34;5100738;28;19911;-70
2021/06/19 01:17:37;;;;;;;;;;;20.40;99.90;;;-145.59;100.00;63944.34;5117137;28;20353;-72
2021/06/19 01:20:09;;;;;;;;;;;20.30;99.90;;;-145.59;100.00;63944.34;5082137;28;19955;-71
2021/06/19 01:22:37;;;;;;;;;;;20.30;99.90;;;-145.59;100.00;63944.34;5100478;28;20281;-70
2021/06/19 01:25:05;;;;;;;;;;;20.20;99.90;;;-145.59;100.00;63944.34;5098743;28;19963;-70
2021/06/19 01:27:32;;;;;;;;;;;20.10;99.90;;;-145.59;100.00;63944.34;5099077;28;20277;-71
2021/06/19 01:30:03;;;;;;;;;;;20.00;99.90;;;-145.59;100.00;63944.34;5099140;28;19911;-72
2021/06/19 01:32:32;;;;;;;;;;;19.90;99.90;;;-145.59;100.00;63944.34;5099980;28;19999;-73
2021/06/19 01:34:58;;;;;;;;;;;19.90;99.90;;;-145.59;100.00;63944.34;5082365;28;20389;-73
2021/06/19 01:37:24;;;;;;;;;;;19.80;99.90;;;-145.59;100.00;63944.34;5099751;28;19951;-71
2021/06/19 01:39:50;;;;;;;;;;;19.80;99.90;;;-145.59;100.00;63944.34;5098990;28;19923;-71
2021/06/19 01:42:15;;;;;;;;;;;19.70;99.90;;;-145.59;100.00;63944.34;5098527;28;19911;-71
2021/06/19 01:44:41;;;;;;;;;;;19.70;99.90;;;-145.59;100.00;63944.34;5081447;28;19916;-69
2021/06/19 01:47:07;;;;;;;;;;;19.70;99.90;;;-145.59;100.00;63944.34;5082126;28;20420;-70
2021/06/19 01:49:37;;;;;;;;;;;19.50;99.90;;;-145.59;100.00;63944.34;5080272;28;20400;-65
2021/06/19 01:52:04;;;;;;;;;;;19.40;99.90;;;-145.59;100.00;63944.34;5116545;28;19923;-62
2021/06/19 01:54:39;;;;;;;;;;;19.30;99.90;;;-145.59;100.00;63944.34;5098548;28;19916;-65
2021/06/19 01:57:06;;;;;;;;;;;19.20;99.90;;;-145.59;100.00;63944.34;5100891;28;19961;-66
2021/06/19 01:59:32;;;;;;;;;;;19.10;99.90;;;-145.59;100.00;63944.34;5099389;28;19923;-61
2021/06/19 02:01:59;;;;;;;;;;;19.00;99.90;;;-145.59;100.00;63944.34;5116695;28;19922;-63
2021/06/19 02:04:26;;;;;;;;;;;19.00;99.90;;;-145.59;100.00;63944.34;5098246;28;19926;-65
2021/06/19 02:06:52;;;;;;;;;;;19.00;99.90;;;-145.59;100.00;63944.34;5098463;28;19920;-61
2021/06/19 02:09:18;;;;;;;;;;;18.90;99.90;;;-145.59;100.00;63944.34;5081382;28;20014;-66
2021/06/19 02:11:44;;;;;;;;;;;18.90;99.90;;;-145.59;100.00;63944.34;5098033;28;19920;-65
2021/06/19 02:14:12;;;;;;;;;;;18.80;99.90;;;-145.59;100.00;63944.34;5098121;28;19973;-65
2021/06/19 02:16:39;;;;;;;;;;;18.80;99.90;;;-145.59;100.00;63944.34;5115985;28;19912;-64
2021/06/19 02:19:05;;;;;;;;;;;18.80;99.90;;;-145.59;100.00;63944.34;5097872;28;20309;-62
2021/06/19 02:21:31;;;;;;;;;;;18.80;99.90;;;-145.59;100.00;63944.34;5081103;28;19969;-62
2021/06/19 02:23:57;;;;;;;;;;;18.80;99.90;;;-145.59;100.00;63944.34;5097674;28;19954;-62
2021/06/19 02:26:22;;;;;;;;;;;18.70;99.90;;;-145.59;100.00;63944.34;5115777;28;20285;-67
2021/06/19 02:28:48;;;;;;;;;;;18.70;99.90;;;-145.59;100.00;63944.34;5097785;28;19956;-62
2021/06/19 02:31:16;;;;;;;;;;;18.70;99.90;;;-145.59;100.00;63944.34;5116138;28;19920;-65
2021/06/19 02:33:43;;;;;;;;;;;18.70;99.90;;;-145.59;100.00;63944.34;5097933;28;19911;-66
2021/06/19 02:36:09;;;;;;;;;;;18.60;99.90;;;-145.59;100.00;63944.34;5116117;28;20002;-65
2021/06/19 02:38:35;;;;;;;;;;;18.60;99.90;;;-145.59;100.00;63944.34;5063553;28;19916;-63
2021/06/19 02:41:01;;;;;;;;;;;18.60;99.90;;;-145.59;100.00;63944.34;5097160;28;19923;-62
2021/06/19 02:43:28;;;;;;;;;;;18.60;99.90;;;-145.59;100.00;63944.34;5097350;28;19919;-63
2021/06/19 02:45:58;;;;;;;;;;;18.60;99.90;;;-145.59;100.00;63944.34;5097640;28;19954;-66
2021/06/19 02:48:24;;;;;;;;;;;18.50;99.90;;;-145.59;100.00;63944.34;5081115;28;19960;-62
2021/06/19 02:50:50;;;;;;;;;;;18.50;99.90;;;-145.59;100.00;63944.34;5063556;28;19919;-62
2021/06/19 02:53:16;;;;;;;;;;;18.40;99.90;;;-145.59;100.00;63944.34;5097202;28;19961;-62
2021/06/19 02:55:43;;;;;;;;;;;18.40;99.90;;;-145.59;100.00;63944.34;5115567;28;19911;-65
2021/06/19 02:58:10;;;;;;;;;;;18.40;99.90;;;-145.59;100.00;63944.34;5097214;28;20381;-65
2021/06/19 03:00:36;;;;;;;;;;;18.40;99.90;;;-145.59;100.00;63944.34;5096838;28;20274;-63
2021/06/19 03:03:03;;;;;;;;;;;18.30;99.90;;;-145.59;100.00;63944.34;5080122;28;19954;-64
2021/06/19 03:05:30;;;;;;;;;;;18.40;99.90;;;-145.59;100.00;63944.34;5080264;28;19912;-64
2021/06/19 03:07:57;;;;;;;;;;;18.30;99.90;;;-145.59;100.00;63944.34;5097013;28;20369;-63
2021/06/19 03:10:52;;;;;;;;;;;18.30;99.90;;;-145.59;100.00;63944.34;5079898;28;19912;-65
2021/06/19 03:13:18;;;;;;;;;;;18.30;99.90;;;-145.59;100.00;63944.34;5101348;28;19922;-68
2021/06/19 03:15:43;;;;;;;;;;;18.30;99.90;;;-145.59;100.00;63944.34;5096466;28;20356;-66
2021/06/19 03:18:09;;;;;;;;;;;18.30;99.90;;;-145.59;100.00;63944.34;5096628;28;19960;-60
2021/06/19 03:20:35;;;;;;;;;;;18.30;99.90;;;-145.59;100.00;63944.34;5079577;28;19926;-64
2021/06/19 03:23:02;;;;;;;;;;;18.30;99.90;;;-145.59;100.00;63944.34;5114760;28;19916;-64
2021/06/19 03:25:36;;;;;;;;;;;18.20;99.90;;;-145.59;100.00;63944.34;5096992;28;19919;-64
2021/06/19 03:28:04;;;;;;;;;;;18.20;99.90;;;-145.59;100.00;63944.34;5097782;28;19911;-62
2021/06/19 03:30:31;;;;;;;;;;;18.20;99.90;;;-145.59;100.00;63944.34;5096773;28;19938;-62
2021/06/19 03:32:57;;;;;;;;;;;18.20;99.90;;;-145.59;100.00;63944.34;5114538;28;19915;-63
2021/06/19 03:35:23;;;;;;;;;;;18.10;99.90;;;-145.59;100.00;63944.34;5096600;28;19911;-66
2021/06/19 03:37:50;;;;;;;;;;;18.10;99.90;;;-145.59;100.00;63944.34;5114444;28;20271;-63
2021/06/19 03:40:17;;;;;;;;;;;18.10;99.90;;;-145.59;100.00;63944.34;5096390;28;19955;-68
2021/06/19 03:42:45;;;;;;;;;;;18.10;99.90;;;-145.59;100.00;63944.34;5062740;28;19915;-63
2021/06/19 03:45:11;;;;;;;;;;;18.20;99.90;;;-145.59;100.00;63944.34;5079269;28;20278;-62
2021/06/19 03:47:39;;;;;;;;;;;18.20;99.90;;;-145.59;100.00;63944.34;5096209;28;19951;-62
2021/06/19 03:50:06;;;;;;;;;;;18.10;99.90;;;-145.59;100.00;63944.34;5095946;28;20297;-62
2021/06/19 03:52:32;;;;;;;;;;;18.20;99.90;;;-145.59;100.00;63944.34;5096407;28;19916;-61
2021/06/19 03:54:57;;;;;;;;;;;18.10;99.90;;;-145.59;100.00;63944.34;5079548;28;19965;-64
2021/06/19 03:57:28;;;;;;;;;;;18.10;99.90;;;-145.59;100.00;63944.34;5095879;28;19922;-65
2021/06/19 03:59:54;;;;;;;;;;;18.00;99.90;;;-145.59;100.00;63944.34;5096239;28;19946;-63
2021/06/19 04:02:20;;;;;;;;;;;18.00;99.90;;;-145.59;100.00;63944.34;5079369;28;19919;-62
2021/06/19 04:04:47;;;;;;;;;;;18.00;99.90;;;-145.59;100.00;63944.34;5096097;28;19915;-62
2021/06/19 04:07:13;;;;;;;;;;;18.00;99.90;;;-145.59;100.00;63944.34;5074762;28;19969;-61
2021/06/19 04:09:39;;;;;;;;;;;18.00;99.90;;;-145.59;100.00;63944.34;4968576;28;144797;-61
2021/06/19 04:12:05;;;;;;;;;;;18.10;99.90;;;-145.59;100.00;63944.34;4995077;28;19955;-65
2021/06/19 04:14:31;;;;;;;;;;;18.00;99.90;;;-145.59;100.00;63944.34;5093411;28;19923;-63
2021/06/19 04:16:57;;;;;;;;;;;18.00;99.90;;;-145.59;100.00;63944.34;5075582;28;19916;-62
2021/06/19 04:19:23;;;;;;;;;;;18.10;99.90;;;-145.59;100.00;63944.34;5076165;28;19916;-61
2021/06/19 04:21:49;;;;;;;;;;;18.00;99.90;;;-145.59;100.00;63944.34;5093620;28;20416;-63
2021/06/19 04:24:14;;;;;;;;;;;18.00;99.90;;;-145.59;100.00;63944.34;5059100;28;19965;-62
2021/06/19 04:26:40;;;;;;;;;;;18.10;99.90;;;-145.59;100.00;63944.34;5058782;28;20297;-64
2021/06/19 04:29:06;;;;;;;;;;;18.10;99.90;;;-145.59;100.00;63944.34;5058667;28;20431;-62
2021/06/19 04:31:32;;;;;;;;;;;18.10;99.90;;;-145.59;100.00;63944.34;5093600;28;19912;-62
2021/06/19 04:33:59;;;;;;;;;;;18.00;99.90;;;-145.59;100.00;63944.34;5075612;28;19916;-62
2021/06/19 04:36:25;;;;;;;;;;;18.00;99.90;;;-145.59;100.00;63944.34;5093525;28;19925;-63
2021/06/19 04:38:51;;;;;;;;;;;18.00;99.90;;;-145.59;100.00;63944.34;5058535;28;20022;-63
2021/06/19 04:41:30;;;;;;;;;;;18.00;99.90;;;-145.59;100.00;63944.34;5075394;28;19916;-60
2021/06/19 04:46:22;;;;;;;;;;;18.00;99.90;;;-145.59;100.00;63944.34;5075622;28;19916;-66
2021/06/19 04:48:47;;;;;;;;;;;18.00;99.90;;;-145.59;100.00;63944.34;5075214;28;19920;-65
2021/06/19 04:51:14;;;;;;;;;;;18.00;99.90;;;-145.59;100.00;63944.34;5076707;28;19980;-71
2021/06/19 04:53:40;;;;;;;;;;;18.00;99.90;;;-145.59;100.00;63944.34;5076515;28;20014;-69
2021/06/19 04:56:06;;;;;;;;;;;17.90;99.90;;;-145.59;100.00;63944.34;5058741;28;20373;-70
2021/06/19 04:58:34;;;;;;;;;;;17.90;99.90;;;-145.59;100.00;63944.34;5075102;28;19923;-70
2021/06/19 05:01:00;;;;;;;;;;;17.90;99.90;;;-145.59;100.00;63944.34;5058499;28;20290;-70
2021/06/19 05:03:26;;;;;;;;;;;17.90;99.90;;;-145.59;100.00;63944.34;5058358;28;19955;-69
2021/06/19 05:05:51;;;;;;;;;;;18.00;99.90;;;-145.59;100.00;63944.34;5058433;28;20006;-70
2021/06/19 05:08:17;;;;;;;;;;;18.10;99.90;;;-145.59;100.00;63944.34;5058252;28;19916;-69
2021/06/19 05:10:44;;;;;;;;;;;18.10;99.90;;;-145.59;100.00;63944.34;5058339;28;20006;-69
2021/06/19 05:13:10;;;;;;;;;;;18.10;99.90;;;-145.59;100.00;63944.34;5074977;28;19920;-70
2021/06/19 05:15:35;;;;;;;;;;;18.20;99.90;;;-145.59;100.00;63944.34;5074944;28;20369;-69
2021/06/19 05:18:01;;;;;;;;;;;18.30;99.90;;;-145.59;100.00;63944.34;5075160;28;19920;-68
2021/06/19 05:20:29;;;;;;;;;;;18.30;99.90;;;-145.59;100.00;63944.34;5075367;28;19912;-70
2021/06/19 05:23:09;;;;;;;;;;;18.30;99.90;;;-145.59;100.00;63944.34;5075929;28;19935;-70
2021/06/19 05:25:37;;;;;;;;;;;18.30;99.90;;;-145.59;100.00;63944.34;5079626;28;19999;-70
2021/06/19 05:28:03;;;;;;;;;;;18.20;99.90;;;-145.59;100.00;63944.34;5061931;28;19916;-70
2021/06/19 05:30:29;;;;;;;;;;;18.30;99.90;;;-145.59;100.00;63944.34;5061979;28;20015;-69
2021/06/19 05:32:55;;;;;;;;;;;18.30;99.90;;;-145.59;100.00;63944.34;5096771;28;20313;-69
2021/06/19 05:35:20;;;;;;;;;;;18.30;99.90;;;-145.59;100.00;63944.34;5096754;28;20377;-70
2021/06/19 05:37:46;;;;;;;;;;;18.30;99.90;;;-145.59;100.00;63944.34;5045324;28;19916;-70
2021/06/19 05:40:12;;;;;;;;;;;18.30;99.90;;;-145.59;100.00;63944.34;5096648;28;19935;-71
2021/06/19 05:42:38;;;;;;;;;;;18.40;99.90;;;-145.59;100.00;63944.34;5078345;28;20019;-70
2021/06/19 05:45:05;;;;;;;;;;;18.30;99.90;;;-145.59;100.00;63944.34;5078189;28;19912;-70
2021/06/19 05:47:30;;;;;;;;;;;18.20;99.90;;;-145.59;100.00;63944.34;5078501;28;19916;-71
2021/06/19 05:49:56;;;;;;;;;;;18.10;99.90;;;-145.59;100.00;63944.34;5061464;28;19937;-70
2021/06/19 05:52:23;;;;;;;;;;;18.20;99.90;;;-145.59;100.00;63944.34;5078237;28;19923;-68
2021/06/19 05:54:48;;;;;;;;;;;18.10;99.90;;;-145.59;100.00;63944.34;5061484;28;19923;-70
2021/06/19 05:57:14;;;;;;;;;;;18.10;99.90;;;-145.59;100.00;63944.34;5061143;28;19920;-69
2021/06/19 05:59:40;;;;;;;;;;;18.10;99.90;;;-145.59;100.00;63944.34;5078135;28;19916;-71
2021/06/19 06:02:06;;;;;;;;;;;18.20;99.90;;;-145.59;100.00;63944.34;5077960;28;19912;-70
2021/06/19 06:04:32;;;;;;;;;;;18.20;99.90;;;-145.59;100.00;63944.34;5078116;28;19918;-70
2021/06/19 06:06:58;;;;;;;;;;;18.30;99.90;;;-145.59;100.00;63944.34;5077994;28;19947;-70
2021/06/19 06:09:24;;;;;;;;;;;18.20;99.90;;;-145.59;100.00;63944.34;5077745;28;19995;-68
2021/06/19 06:11:50;;;;;;;;;;;18.30;99.90;;;-145.59;100.00;63944.34;5061162;28;19923;-71
2021/06/19 06:14:15;;;;;;;;;;;18.30;99.90;;;-145.59;100.00;63944.34;5074342;28;19920;-70
2021/06/19 06:16:41;;;;;;;;;;;18.30;99.90;;;-145.59;100.00;63944.34;5075408;28;20272;-69
2021/06/19 06:19:07;;;;;;;;;;;18.30;99.90;;;-145.59;100.00;63944.34;5057586;28;19924;-69
2021/06/19 06:21:33;;;;;;;;;;;18.30;99.90;;;-145.59;100.00;63944.34;5057987;28;20050;-71
2021/06/19 06:23:59;;;;;;;;;;;18.30;99.90;;;-145.59;100.00;63944.34;5074458;28;19963;-72
2021/06/19 06:26:25;;;;;;;;;;;18.30;99.90;;;-145.59;100.00;63944.34;5074144;28;19920;-70
2021/06/19 06:28:50;;;;;;;;;;;18.30;99.90;;;-145.59;100.00;63944.34;5040849;28;20401;-72
2021/06/19 06:31:16;;;;;;;;;;;18.30;99.90;;;-145.59;100.00;63944.34;5075579;28;20041;-70
2021/06/19 06:33:42;;;;;;;;;;;18.30;99.90;;;-145.59;100.00;63944.34;5074087;28;19939;-70
2021/06/19 06:36:08;;;;;;;;;;;18.40;99.90;;;-145.59;100.00;63944.34;5073247;28;19969;-70
2021/06/19 06:38:34;;;;;;;;;;;18.40;99.90;;;-145.59;100.00;63944.34;5040398;28;19913;-69
2021/06/19 06:41:00;;;;;;;;;;;18.40;99.90;;;-145.59;100.00;63944.34;5057089;28;19916;-68
2021/06/19 06:43:26;;;;;;;;;;;18.40;99.90;;;-145.59;100.00;63944.34;5074941;28;19916;-72
2021/06/19 06:45:51;;;;;;;;;;;18.50;99.90;;;-145.59;100.00;63944.34;5074990;28;19916;-68
2021/06/19 06:48:17;;;;;;;;;;;18.50;99.90;;;-145.59;100.00;63944.34;5057268;28;19916;-71
2021/06/19 06:50:43;;;;;;;;;;;18.40;99.90;;;-145.59;100.00;63944.34;5040236;28;19912;-70
2021/06/19 06:53:09;;;;;;;;;;;18.30;99.90;;;-145.59;100.00;63944.34;5056747;28;19916;-69
2021/06/19 06:55:35;;;;;;;;;;;18.30;99.90;;;-145.59;100.00;63944.34;5040277;28;20018;-70
2021/06/19 06:58:00;;;;;;;;;;;18.30;99.90;;;-145.59;100.00;63944.34;5073309;28;19919;-71
2021/06/19 07:00:26;;;;;;;;;;;18.40;99.90;;;-145.59;100.00;63944.34;5074614;28;19912;-69
2021/06/19 07:02:52;;;;;;;;;;;18.30;99.90;;;-145.59;100.00;63944.34;5075243;28;20406;-69
2021/06/19 07:05:18;;;;;;;;;;;18.30;99.90;;;-145.59;100.00;63944.34;5073616;28;19916;-69
2021/06/19 07:07:45;;;;;;;;;;;18.30;99.90;;;-145.59;100.00;63944.34;5074633;28;19912;-69
2021/06/19 07:10:12;;;;;;;;;;;18.30;99.90;;;-145.59;100.00;63944.34;5073078;28;20359;-70
2021/06/19 07:12:42;;;;;;;;;;;18.30;99.90;;;-145.59;100.00;63944.34;5057459;28;19916;-71
2021/06/19 07:15:12;;;;;;;;;;;18.30;99.90;;;-145.59;100.00;63944.34;5059927;28;19969;-69
2021/06/19 07:17:38;;;;;;;;;;;18.40;99.90;;;-145.59;100.00;63944.34;5059973;28;19916;-69
2021/06/19 07:20:06;;;;;;;;;;;18.60;99.90;;;-145.59;100.00;63944.34;5059396;28;20322;-70
2021/06/19 07:22:33;;;;;;;;;;;18.50;99.90;;;-145.59;100.00;63944.34;5076413;28;19957;-70
2021/06/19 07:24:59;;;;;;;;;;;18.50;99.90;;;-145.59;100.00;63944.34;5059493;28;19916;-70
2021/06/19 07:27:25;;;;;;;;;;;18.50;99.90;;;-145.59;100.00;63944.34;5076160;28;19998;-69
2021/06/19 07:29:50;;;;;;;;;;;18.50;99.90;;;-145.59;100.00;63944.34;5059447;28;19938;-69
2021/06/19 07:32:16;;;;;;;;;;;18.60;99.90;;;-145.59;100.00;63944.34;5076220;28;19916;-71
2021/06/19 07:34:42;;;;;;;;;;;18.50;99.90;;;-145.59;100.00;63944.34;5042666;28;20212;-70
2021/06/19 07:37:07;;;;;;;;;;;18.60;99.90;;;-145.59;100.00;63944.34;5075763;28;19916;-69
2021/06/19 07:39:33;;;;;;;;;;;18.60;99.90;;;-145.59;100.00;63944.34;5075938;28;19920;-71
2021/06/19 07:41:59;;;;;;;;;;;18.70;99.90;;;-145.59;100.00;63944.34;5094430;28;19919;-69
2021/06/19 07:44:25;;;;;;;;;;;18.60;99.90;;;-145.59;100.00;63944.34;5058924;28;19976;-69
2021/06/19 07:46:51;;;;;;;;;;;18.70;99.90;;;-145.59;100.00;63944.34;5093657;28;19922;-70
2021/06/19 07:49:19;;;;;;;;;;;18.70;99.90;;;-145.59;100.00;63944.34;5076014;28;19918;-70
2021/06/19 07:51:45;;;;;;;;;;;18.80;99.90;;;-145.59;100.00;63944.34;5076265;28;19920;-65
2021/06/19 07:54:11;;;;;;;;;;;18.90;99.90;;;-145.59;100.00;63944.34;5094036;28;19955;-62
2021/06/19 07:56:36;;;;;;;;;;;19.00;99.90;;;-145.59;100.00;63944.34;5075546;28;19961;-64
2021/06/19 07:59:02;;;;;;;;;;;19.10;99.90;;;-145.59;100.00;63944.34;5058825;28;20289;-66
2021/06/19 08:01:28;;;;;;;;;;;19.20;99.90;;;-145.59;100.00;63944.34;5042233;28;19916;-63
2021/06/19 08:03:53;;;;;;;;;;;19.30;99.90;;;-145.59;100.00;63944.34;5075571;28;19926;-65
2021/06/19 08:06:19;;;;;;;;;;;19.30;99.90;;;-145.59;100.00;63944.34;5059019;28;19920;-69
2021/06/19 08:08:45;;;;;;;;;;;19.40;99.90;;;-145.59;100.00;63944.34;5075765;28;19982;-71
2021/06/19 08:11:11;;;;;;;;;;;19.50;99.90;;;-145.59;100.00;63944.34;5075842;28;19923;-67
2021/06/19 08:13:37;;;;;;;;;;;19.50;99.90;;;-145.59;100.00;63944.34;5058741;28;19920;-68
2021/06/19 08:16:05;;;;;;;;;;;19.70;99.90;;;-145.59;100.00;63944.34;5075832;28;20365;-69
2021/06/19 08:18:31;;;;;;;;;;;19.80;99.90;;;-145.59;100.00;63944.34;5076028;28;19947;-69
2021/06/19 08:20:57;;;;;;;;;;;20.00;99.90;;;-145.59;100.00;63944.34;5058537;28;19912;-64
2021/06/19 08:23:22;;;;;;;;;;;20.10;99.90;;;-145.59;100.00;63944.34;5058655;28;20014;-63
2021/06/19 08:25:48;;;;;;;;;;;20.30;99.90;;;-145.59;100.00;63944.34;5058864;28;19923;-62
2021/06/19 08:28:14;;;;;;;;;;;20.40;99.90;;;-145.59;100.00;63944.34;5075859;28;19919;-63
2021/06/19 08:30:42;;;;;;;;;;;20.70;99.90;;;-145.59;100.00;63944.34;5093545;28;19912;-68
2021/06/19 08:33:08;;;;;;;;;;;21.20;99.90;;;-145.59;100.00;63944.34;5077497;28;19977;-72
2021/06/19 08:35:33;;;;;;;;;;;21.70;99.90;;;-145.59;100.00;63944.34;5059864;28;20366;-69
2021/06/19 08:37:59;;;;;;;;;;;22.10;99.90;;;-145.59;100.00;63944.34;5059696;28;19923;-62
2021/06/19 08:40:25;;;;;;;;;;;22.40;99.90;;;-145.59;100.00;63944.34;5059568;28;19919;-68
2021/06/19 08:42:51;;;;;;;;;;;22.80;99.90;;;-145.59;100.00;63944.34;5094581;28;20263;-65
2021/06/19 08:45:17;;;;;;;;;;;23.10;99.90;;;-145.59;100.00;63944.34;5059712;28;19922;-74
2021/06/19 08:47:45;;;;;;;;;;;23.30;99.90;;;-145.59;100.00;63944.34;5043174;28;20355;-68
2021/06/19 08:50:13;;;;;;;;;;;23.20;99.90;;;-145.59;100.00;63944.34;5059981;28;19912;-70
2021/06/19 08:52:40;;;;;;;;;;;22.80;99.90;;;-145.59;100.00;63944.34;5059672;28;20011;-67
2021/06/19 08:55:11;;;;;;;;;;;22.70;99.90;;;-145.59;100.00;63944.34;5059313;28;19919;-70
2021/06/19 08:57:37;;;;;;;;;;;22.60;99.90;;;-145.59;100.00;63944.34;5094005;28;19919;-66
2021/06/19 09:00:05;;;;;;;;;;;22.50;99.90;;;-145.59;100.00;63944.34;5078832;28;19937;-66
2021/06/19 09:02:31;;;;;;;;;;;22.60;99.90;;;-145.59;100.00;63944.34;5097331;28;19973;-63
2021/06/19 09:05:09;;;;;;;;;;;22.60;99.90;;;-145.59;100.00;63944.34;5079542;28;19916;-65
2021/06/19 09:07:44;;;;;;;;;;;22.60;99.90;;;-145.59;100.00;63944.34;5097244;28;20283;-66
2021/06/19 09:10:25;;;;;;;;;;;22.60;99.90;;;-145.59;100.00;63944.34;5078710;28;19919;-69
2021/06/19 09:13:09;;;;;;;;;;;22.70;99.90;;;-145.59;100.00;63944.34;5078645;28;19916;-69
2021/06/19 09:15:50;;;;;;;;;;;22.60;99.90;;;-145.59;100.00;63944.34;5078842;28;19965;-67
2021/06/19 09:18:25;;;;;;;;;;;22.60;99.90;;;-145.59;100.00;63944.34;5079992;28;19916;-67
2021/06/19 09:20:54;;;;;;;;;;;22.70;99.90;;;-145.59;100.00;63944.34;5078823;28;20370;-66
2021/06/19 09:23:27;;;;;;;;;;;22.90;99.90;;;-145.59;100.00;63944.34;5062264;28;19919;-68
2021/06/19 09:26:08;;;;;;;;;;;22.80;99.90;;;-145.59;100.00;63944.34;5078604;28;19951;-64
2021/06/19 09:28:53;;;;;;;;;;;22.60;99.90;;;-145.59;100.00;63944.34;5078409;28;19916;-66
2021/06/19 09:31:36;;;;;;;;;;;22.40;99.90;;;-145.59;100.00;63944.34;5096649;28;19919;-64
2021/06/19 09:34:35;;;;;;;;;;;22.20;99.90;;;-145.59;100.00;63944.34;5078362;28;19918;-65
2021/06/19 09:37:06;;;;;;;;;;;22.30;99.90;;;-145.59;100.00;63944.34;5056557;28;19944;-68
2021/06/19 09:39:33;;;;;;;;;;;22.70;99.90;;;-145.59;100.00;63944.34;5096428;28;20384;-64
2021/06/19 09:42:02;;;;;;;;;;;23.10;99.90;;;-145.59;100.00;63944.34;5078682;28;20374;-66
2021/06/19 09:44:48;;;;;;;;;;;23.20;99.90;;;-145.59;100.00;63944.34;5078509;28;20324;-65
2021/06/19 09:47:19;;;;;;;;;;;23.60;99.90;;;-145.59;100.00;63944.34;5061684;28;20030;-65
2021/06/19 09:49:47;;;;;;;;;;;23.80;99.90;;;-145.59;100.00;63944.34;5078881;28;19912;-63
2021/06/19 09:52:13;;;;;;;;;;;23.90;99.90;;;-145.59;100.00;63944.34;5096702;28;19942;-66
2021/06/19 09:54:40;;;;;;;;;;;23.80;99.90;;;-145.59;100.00;63944.34;5078606;28;19916;-68
2021/06/19 09:57:12;;;;;;;;;;;23.70;99.80;;;-145.59;100.00;63944.34;5078341;28;19918;-68
2021/06/19 09:59:39;;;;;;;;;;;23.80;99.90;;;-145.59;100.00;63944.34;5062429;28;19961;-65
2021/06/19 10:02:34;;;;;;;;;;;23.70;99.90;;;-145.59;100.00;63944.34;5079131;28;19919;-65
2021/06/19 10:05:00;;;;;;;;;;;23.60;99.90;;;-145.59;100.00;63944.34;5087139;28;19912;-66
2021/06/19 10:07:27;;;;;;;;;;;23.50;99.90;;;-145.59;100.00;63944.34;5077763;28;19919;-64
2021/06/19 10:09:55;;;;;;;;;;;23.50;99.90;;;-145.59;100.00;63944.34;5077425;28;19919;-69
2021/06/19 10:12:32;;;;;;;;;;;23.60;99.90;;;-145.59;100.00;63944.34;5061615;28;19919;-67
2021/06/19 10:15:13;;;;;;;;;;;23.80;99.90;;;-145.59;100.00;63944.34;5078818;28;20328;-67
2021/06/19 10:17:41;;;;;;;;;;;24.20;99.90;;;-145.59;100.00;63944.34;5045668;28;19916;-65
2021/06/19 10:20:14;;;;;;;;;;;24.80;99.80;;;-145.59;100.00;63944.34;5079245;28;20321;-65
2021/06/19 10:22:42;;;;;;;;;;;25.50;99.40;;;-145.59;100.00;63944.34;5062589;28;19908;-66
2021/06/19 10:25:10;;;;;;;;;;;26.50;98.40;;;-145.59;100.00;63944.34;5096361;28;20006;-65
2021/06/19 10:27:39;;;;;;;;;;;27.40;96.90;;;-145.59;100.00;63944.34;5078392;28;19943;-67
2021/06/19 10:30:06;;;;;;;;;;;28.10;95.20;;;-145.59;100.00;63944.34;5096863;28;19912;-65
2021/06/19 10:32:49;;;;;;;;;;;28.30;95.20;;;-145.59;100.00;63944.34;5078339;28;19943;-67
2021/06/19 10:35:36;;;;;;;;;;;28.50;95.40;;;-145.59;100.00;63944.34;5095805;28;19920;-68
2021/06/19 10:38:20;;;;;;;;;;;28.70;94.20;;;-145.59;100.00;63944.34;5078672;28;19935;-70
2021/06/19 10:40:59;;;;;;;;;;;28.70;93.40;;;-145.59;100.00;63944.34;5062931;28;19919;-70
2021/06/19 10:43:27;;;;;;;;;;;28.70;94.10;;;-145.59;100.00;63944.34;5078164;28;20267;-63
2021/06/19 10:45:59;;;;;;;;;;;28.60;93.10;;;-145.59;100.00;63944.34;5080361;28;19919;-63
2021/06/19 10:48:34;;;;;;;;;;;28.70;93.20;;;-145.59;100.00;63944.34;5060791;28;20366;-64
2021/06/19 10:51:23;;;;;;;;;;;28.90;93.70;;;-145.59;100.00;63944.34;5095122;28;19908;-61
2021/06/19 10:54:08;;;;;;;;;;;28.90;93.00;;;-145.59;100.00;63944.34;5077317;28;19916;-64
2021/06/19 10:56:53;;;;;;;;;;;29.00;93.10;;;-145.59;100.00;63944.34;5095817;28;19919;-62
2021/06/19 10:59:23;;;;;;;;;;;29.10;92.80;;;-145.59;100.00;63944.34;5095022;28;19912;-66
2021/06/19 11:01:55;;;;;;;;;;;29.00;92.90;;;-145.59;100.00;63944.34;5094851;28;19912;-61